createdAt,value
2018-07-10T00:02:37.094Z,49.80
2018-07-10T00:06:18.635Z,49.50
2018-07-10T00:11:00.625Z,49.80
2018-07-10T00:13:28.940Z,50.10
2018-07-10T00:15:57.293Z,49.80
2018-07-10T00:18:25.600Z,49.80
2018-07-10T00:20:54.459Z,50.10
2018-07-10T00:23:22.821Z,50.50
2018-07-10T00:25:51.928Z,50.30
2018-07-10T00:28:20.926Z,50.10
2018-07-10T00:30:49.283Z,50.60
2018-07-10T00:33:17.607Z,50.70
2018-07-10T00:35:45.940Z,50.40
2018-07-10T00:39:26.922Z,50.60
2018-07-10T00:41:55.248Z,50.70
2018-07-10T00:44:23.624Z,50.40
2018-07-10T00:46:51.984Z,50.50
2018-07-10T00:49:20.328Z,50.70
2018-07-10T00:51:49.263Z,51.20
2018-07-10T00:54:17.577Z,51.30
2018-07-10T00:56:46.752Z,51.30
2018-07-10T00:59:15.209Z,51.20
2018-07-10T01:01:43.874Z,51.40
2018-07-10T01:04:12.172Z,51.30
2018-07-10T01:06:40.582Z,51.30
2018-07-10T01:09:13.056Z,51.70
2018-07-10T01:11:41.766Z,51.60
2018-07-10T01:14:10.157Z,51.40
2018-07-10T01:16:39.453Z,51.80
2018-07-10T01:19:14.673Z,51.70
2018-07-10T01:21:43.679Z,52.20
2018-07-10T01:24:13.976Z,52.40
2018-07-10T01:26:42.593Z,52.30
2018-07-10T01:29:21.522Z,53.00
2018-07-10T01:31:52.360Z,52.30
2018-07-10T01:34:21.008Z,52.60
2018-07-10T01:36:49.695Z,52.60
2018-07-10T01:39:18.034Z,52.90
2018-07-10T01:41:46.381Z,53.40
2018-07-10T01:44:14.832Z,53.20
2018-07-10T01:46:43.214Z,53.30
2018-07-10T01:49:11.532Z,53.70
2018-07-10T01:51:39.894Z,53.60
2018-07-10T01:54:08.271Z,53.50
2018-07-10T01:56:36.729Z,53.70
2018-07-10T01:59:05.302Z,53.70
2018-07-10T02:01:33.973Z,54.00
2018-07-10T02:04:02.947Z,53.80
2018-07-10T02:06:31.313Z,54.00
2018-07-10T02:08:59.949Z,53.90
2018-07-10T02:11:28.282Z,53.70
2018-07-10T02:13:56.660Z,54.00
2018-07-10T02:16:25.729Z,54.10
2018-07-10T02:18:54.060Z,54.10
2018-07-10T02:21:22.437Z,54.40
2018-07-10T02:23:50.778Z,54.20
2018-07-10T02:26:21.985Z,54.30
2018-07-10T02:28:51.297Z,54.30
2018-07-10T02:31:19.716Z,54.50
2018-07-10T02:33:48.105Z,54.60
2018-07-10T02:36:17.141Z,54.40
2018-07-10T02:38:47.551Z,54.60
2018-07-10T02:41:17.689Z,54.60
2018-07-10T02:43:52.148Z,54.20
2018-07-10T02:46:20.652Z,54.80
2018-07-10T02:48:49.363Z,54.40
2018-07-10T02:51:17.800Z,54.70
2018-07-10T02:53:46.409Z,54.70
2018-07-10T02:56:15.853Z,54.60
2018-07-10T02:58:44.193Z,55.10
2018-07-10T03:01:12.539Z,55.40
2018-07-10T03:03:41.934Z,55.60
2018-07-10T03:06:10.344Z,55.60
2018-07-10T03:08:38.691Z,55.60
2018-07-10T03:11:07.253Z,56.30
2018-07-10T03:13:35.974Z,56.20
2018-07-10T03:16:04.324Z,56.40
2018-07-10T03:18:33.055Z,56.20
2018-07-10T03:21:01.382Z,56.20
2018-07-10T03:23:29.755Z,56.30
2018-07-10T03:25:58.325Z,56.30
2018-07-10T03:28:26.725Z,56.00
2018-07-10T03:30:55.055Z,56.00
2018-07-10T03:33:23.473Z,56.10
2018-07-10T03:35:51.823Z,56.10
2018-07-10T03:38:20.238Z,56.50
2018-07-10T03:40:48.553Z,56.20
2018-07-10T03:43:17.201Z,56.70
2018-07-10T03:45:45.761Z,56.60
2018-07-10T03:48:14.142Z,56.70
2018-07-10T03:50:42.520Z,56.80
2018-07-10T03:53:10.991Z,56.80
2018-07-10T03:55:39.588Z,56.60
2018-07-10T03:58:08.017Z,56.70
2018-07-10T04:00:36.867Z,56.50
2018-07-10T04:03:05.385Z,56.60
2018-07-10T04:05:33.725Z,56.50
2018-07-10T04:08:04.798Z,56.70
2018-07-10T04:10:34.580Z,56.40
2018-07-10T04:13:12.200Z,56.30
2018-07-10T04:15:42.071Z,56.20
2018-07-10T04:18:12.172Z,56.20
2018-07-10T04:21:25.130Z,56.40
2018-07-10T04:24:02.044Z,56.40
2018-07-10T04:26:30.410Z,56.40
2018-07-10T04:29:40.172Z,56.70
2018-07-10T04:32:11.824Z,56.60
2018-07-10T04:34:40.309Z,56.50
2018-07-10T04:37:11.699Z,56.50
2018-07-10T04:39:41.898Z,56.60
2018-07-10T04:42:28.508Z,57.20
2018-07-10T04:45:05.351Z,56.50
2018-07-10T04:47:46.441Z,57.10
2018-07-10T04:50:20.023Z,56.50
2018-07-10T04:52:52.488Z,56.50
2018-07-10T04:55:21.010Z,56.50
2018-07-10T04:58:07.875Z,56.90
2018-07-10T05:00:38.434Z,56.50
2018-07-10T05:03:06.771Z,56.10
2018-07-10T05:05:35.150Z,56.20
2018-07-10T05:08:05.188Z,55.80
2018-07-10T05:10:34.806Z,55.80
2018-07-10T05:13:05.908Z,56.00
2018-07-10T05:15:35.724Z,56.20
2018-07-10T05:18:08.225Z,57.00
2018-07-10T05:20:36.624Z,56.50
2018-07-10T05:23:05.069Z,56.60
2018-07-10T05:25:33.420Z,56.60
2018-07-10T05:28:01.887Z,56.20
2018-07-10T05:30:30.242Z,56.10
2018-07-10T05:32:58.599Z,55.70
2018-07-10T05:35:27.040Z,56.10
2018-07-10T05:37:55.444Z,56.20
2018-07-10T05:40:26.536Z,55.90
2018-07-10T05:42:54.979Z,56.30
2018-07-10T05:45:24.608Z,56.50
2018-07-10T05:48:00.020Z,56.60
2018-07-10T05:50:30.232Z,56.30
2018-07-10T05:52:58.685Z,56.70
2018-07-10T05:55:29.298Z,56.50
2018-07-10T05:57:58.780Z,56.50
2018-07-10T06:00:27.339Z,56.20
2018-07-10T06:05:24.685Z,55.60
2018-07-10T06:07:54.922Z,56.00
2018-07-10T06:10:24.690Z,55.80
2018-07-10T06:12:55.019Z,55.70
2018-07-10T06:15:23.500Z,55.90
2018-07-10T06:17:52.174Z,55.90
2018-07-10T06:20:20.601Z,56.20
2018-07-10T06:22:49.676Z,56.40
2018-07-10T06:25:18.127Z,56.30
2018-07-10T06:27:57.888Z,55.90
2018-07-10T06:30:26.262Z,55.90
2018-07-10T06:33:02.592Z,56.10
2018-07-10T06:35:42.487Z,56.10
2018-07-10T06:38:13.484Z,56.20
2018-07-10T06:43:16.941Z,55.60
2018-07-10T06:45:45.274Z,55.50
2018-07-10T06:48:13.760Z,55.10
2018-07-10T06:50:55.008Z,55.50
2018-07-10T06:53:25.727Z,55.70
2018-07-10T06:55:56.328Z,55.90
2018-07-10T06:58:25.405Z,55.40
2018-07-10T07:03:24.507Z,54.30
2018-07-10T07:05:53.000Z,53.50
2018-07-10T07:08:22.375Z,53.20
2018-07-10T07:10:51.003Z,52.90
2018-07-10T07:13:19.474Z,53.10
2018-07-10T07:15:47.928Z,52.50
2018-07-10T07:18:16.426Z,52.00
2018-07-10T07:20:44.853Z,52.50
2018-07-10T07:23:14.113Z,52.60
2018-07-10T07:25:42.531Z,52.50
2018-07-10T07:28:10.940Z,52.30
2018-07-10T07:30:39.360Z,52.10
2018-07-10T07:35:35.950Z,51.10
2018-07-10T07:40:39.179Z,50.50
2018-07-10T07:43:07.654Z,50.40
2018-07-10T07:45:36.113Z,50.40
2018-07-10T07:48:04.585Z,50.10
2018-07-10T07:50:33.051Z,50.00
2018-07-10T07:53:01.488Z,49.80
2018-07-10T07:55:29.935Z,49.30
2018-07-10T07:57:58.427Z,49.30
2018-07-10T08:00:26.898Z,49.30
2018-07-10T08:02:55.408Z,49.30
2018-07-10T08:05:24.141Z,49.30
2018-07-10T08:07:52.780Z,49.30
2018-07-10T08:10:21.241Z,49.80
2018-07-10T08:12:49.761Z,49.40
2018-07-10T08:15:21.343Z,48.50
2018-07-10T08:17:49.721Z,47.90
2018-07-10T08:20:18.653Z,46.90
2018-07-10T08:22:47.016Z,46.50
2018-07-10T08:25:18.610Z,46.50
2018-07-10T08:27:47.026Z,46.20
2018-07-10T08:30:16.170Z,45.30
2018-07-10T08:32:44.649Z,45.10
2018-07-10T08:35:13.062Z,45.60
2018-07-10T08:37:41.399Z,45.50
2018-07-10T08:40:09.758Z,44.70
2018-07-10T08:42:38.913Z,45.20
2018-07-10T08:45:07.244Z,45.50
2018-07-10T08:47:35.733Z,45.80
2018-07-10T08:50:04.110Z,45.70
2018-07-10T08:52:33.098Z,46.20
2018-07-10T08:55:02.458Z,46.20
2018-07-10T08:57:30.888Z,46.10
2018-07-10T08:59:59.601Z,45.70
2018-07-10T09:02:27.958Z,46.00
2018-07-10T09:04:56.298Z,45.50
2018-07-10T09:07:24.774Z,45.60
2018-07-10T09:09:53.132Z,45.30
2018-07-10T09:12:21.465Z,45.70
2018-07-10T09:14:49.814Z,45.40
2018-07-10T09:17:18.146Z,45.40
2018-07-10T09:19:46.467Z,45.30
2018-07-10T09:22:14.803Z,45.10
2018-07-10T09:24:47.760Z,44.50
2018-07-10T09:27:18.169Z,44.00
2018-07-10T09:29:47.065Z,42.60
2018-07-10T09:32:18.342Z,42.80
2018-07-10T09:34:46.691Z,42.60
2018-07-10T09:37:20.311Z,42.50
2018-07-10T09:39:51.872Z,42.30
2018-07-10T09:42:20.213Z,42.00
2018-07-10T09:44:48.566Z,41.00
2018-07-10T09:47:16.956Z,40.90
2018-07-10T09:49:45.318Z,40.20
2018-07-10T09:52:13.708Z,39.70
2018-07-10T09:54:42.128Z,39.60
2018-07-10T09:57:10.485Z,39.10
2018-07-10T09:59:38.888Z,38.80
2018-07-10T10:02:12.571Z,38.90
2018-07-10T10:04:40.951Z,39.40
2018-07-10T10:07:09.307Z,39.60
2018-07-10T10:09:37.726Z,39.10
2018-07-10T10:12:06.070Z,39.40
2018-07-10T10:14:34.462Z,39.50
2018-07-10T10:17:02.962Z,39.30
2018-07-10T10:19:31.320Z,39.60
2018-07-10T10:21:59.676Z,39.90
2018-07-10T10:24:28.107Z,39.60
2018-07-10T10:26:57.888Z,39.70
2018-07-10T10:29:26.278Z,38.40
2018-07-10T10:31:54.790Z,38.50
2018-07-10T10:34:23.227Z,38.50
2018-07-10T10:36:51.562Z,39.20
2018-07-10T10:39:20.314Z,39.80
2018-07-10T10:41:48.666Z,40.10
2018-07-10T10:44:17.037Z,40.40
2018-07-10T10:46:45.390Z,40.40
2018-07-10T10:49:13.806Z,40.60
2018-07-10T10:51:42.505Z,40.50
2018-07-10T10:54:10.888Z,40.20
2018-07-10T10:56:39.294Z,40.60
2018-07-10T10:59:07.702Z,40.80
2018-07-10T11:01:36.052Z,40.90
2018-07-10T11:04:04.451Z,41.20
2018-07-10T11:06:32.849Z,41.30
2018-07-10T11:09:01.432Z,41.20
2018-07-10T11:11:31.069Z,41.20
2018-07-10T11:14:00.967Z,40.60
2018-07-10T11:16:29.345Z,40.60
2018-07-10T11:19:08.706Z,40.70
2018-07-10T11:21:44.162Z,40.50
2018-07-10T11:24:15.417Z,40.50
2018-07-10T11:26:45.470Z,40.60
2018-07-10T11:31:42.279Z,40.80
2018-07-10T11:34:10.661Z,39.80
2018-07-10T11:36:39.029Z,39.30
2018-07-10T11:39:09.355Z,38.30
2018-07-10T11:41:55.458Z,38.20
2018-07-10T11:44:23.854Z,38.20
2018-07-10T11:46:52.233Z,38.00
2018-07-10T11:49:21.368Z,38.10
2018-07-10T11:51:49.761Z,37.80
2018-07-10T11:54:18.164Z,38.20
2018-07-10T11:56:46.558Z,39.80
2018-07-10T11:59:14.903Z,39.80
2018-07-10T12:01:43.347Z,40.40
2018-07-10T12:04:11.685Z,41.10
2018-07-10T12:06:47.560Z,41.20
2018-07-10T12:09:15.919Z,41.40
2018-07-10T12:11:44.797Z,41.40
2018-07-10T12:14:13.165Z,41.70
2018-07-10T12:16:41.570Z,41.90
2018-07-10T12:19:09.898Z,42.10
2018-07-10T12:21:38.292Z,42.00
2018-07-10T12:24:07.009Z,42.30
2018-07-10T12:26:36.098Z,42.70
2018-07-10T12:29:04.551Z,42.90
2018-07-10T12:31:32.954Z,43.10
2018-07-10T12:34:01.341Z,43.30
2018-07-10T12:36:30.233Z,44.20
2018-07-10T12:38:58.587Z,44.30
2018-07-10T12:41:26.938Z,44.80
2018-07-10T12:43:55.330Z,44.30
2018-07-10T12:46:23.684Z,43.90
2018-07-10T12:48:52.064Z,42.60
2018-07-10T12:51:20.461Z,42.10
2018-07-10T12:53:49.066Z,41.50
2018-07-10T12:56:18.042Z,41.80
2018-07-10T12:58:46.336Z,41.40
2018-07-10T13:01:14.763Z,41.00
2018-07-10T13:03:43.767Z,41.20
2018-07-10T13:06:12.132Z,41.80
2018-07-10T13:08:40.460Z,42.30
2018-07-10T13:11:08.816Z,42.10
2018-07-10T13:13:37.166Z,42.10
2018-07-10T13:16:06.285Z,42.30
2018-07-10T13:18:34.702Z,42.10
2018-07-10T13:21:03.081Z,43.30
2018-07-10T13:23:31.462Z,44.00
2018-07-10T13:25:59.853Z,44.00
2018-07-10T13:28:28.233Z,44.10
2018-07-10T13:30:56.876Z,44.40
2018-07-10T13:33:25.358Z,44.60
2018-07-10T13:35:53.811Z,44.50
2018-07-10T13:38:22.880Z,44.60
2018-07-10T13:40:53.754Z,44.80
2018-07-10T13:43:22.258Z,44.90
2018-07-10T13:45:50.603Z,44.70
2018-07-10T13:48:19.414Z,45.40
2018-07-10T13:50:47.824Z,45.70
2018-07-10T13:53:16.260Z,46.20
2018-07-10T13:55:44.634Z,46.70
2018-07-10T13:58:18.215Z,47.60
2018-07-10T14:00:50.735Z,47.50
2018-07-10T14:03:19.115Z,47.80
2018-07-10T14:05:47.521Z,47.60
2018-07-10T14:08:16.013Z,48.70
2018-07-10T14:10:44.460Z,47.80
2018-07-10T14:13:12.792Z,48.40
2018-07-10T14:15:41.211Z,48.20
2018-07-10T14:18:09.634Z,48.20
2018-07-10T14:20:41.408Z,47.70
2018-07-10T14:23:09.895Z,47.00
2018-07-10T14:25:38.314Z,46.40
2018-07-10T14:28:06.720Z,46.50
2018-07-10T14:30:35.104Z,47.00
2018-07-10T14:33:03.449Z,47.00
2018-07-10T14:38:02.505Z,47.60
2018-07-10T14:40:31.499Z,47.40
2018-07-10T14:43:00.199Z,47.20
2018-07-10T14:45:28.653Z,46.90
2018-07-10T14:48:00.591Z,46.90
2018-07-10T14:50:29.307Z,46.80
2018-07-10T14:52:57.773Z,47.00
2018-07-10T14:55:26.305Z,46.70
2018-07-10T14:57:54.738Z,46.80
2018-07-10T15:00:23.063Z,46.00
2018-07-10T15:02:51.459Z,45.70
2018-07-10T15:05:19.844Z,46.40
2018-07-10T15:10:16.320Z,46.10
2018-07-10T15:12:44.734Z,45.80
2018-07-10T15:15:13.118Z,45.50
2018-07-10T15:17:46.979Z,45.60
2018-07-10T15:20:15.325Z,45.30
2018-07-10T15:22:43.658Z,44.80
2018-07-10T15:25:12.042Z,44.10
2018-07-10T15:27:40.449Z,44.90
2018-07-10T15:30:08.854Z,45.60
2018-07-10T15:32:37.145Z,46.20
2018-07-10T15:35:05.831Z,46.90
2018-07-10T15:37:34.272Z,46.90
2018-07-10T15:40:02.701Z,47.60
2018-07-10T15:42:31.249Z,47.10
2018-07-10T15:44:59.595Z,47.10
2018-07-10T15:47:27.935Z,47.80
2018-07-10T15:49:56.312Z,47.40
2018-07-10T15:52:24.849Z,47.50
2018-07-10T15:54:53.397Z,47.70
2018-07-10T15:57:21.935Z,47.80
2018-07-10T15:59:50.385Z,47.80
2018-07-10T16:02:18.752Z,47.50
2018-07-10T16:04:47.123Z,47.60
2018-07-10T16:07:15.575Z,47.50
2018-07-10T16:09:43.930Z,47.90
2018-07-10T16:12:12.302Z,47.70
2018-07-10T16:14:40.670Z,47.50
2018-07-10T16:17:16.678Z,47.70
2018-07-10T16:19:49.392Z,47.50
2018-07-10T16:22:18.889Z,47.50
2018-07-10T16:24:51.875Z,47.70
2018-07-10T16:27:27.014Z,47.50
2018-07-10T16:29:55.520Z,47.20
2018-07-10T16:32:24.348Z,46.90
2018-07-10T16:34:52.704Z,46.90
2018-07-10T16:37:21.224Z,47.00
2018-07-10T16:39:49.885Z,46.90
2018-07-10T16:42:23.619Z,46.70
2018-07-10T16:44:52.158Z,46.60
2018-07-10T16:47:27.730Z,46.40
2018-07-10T16:50:00.298Z,46.60
2018-07-10T16:53:00.509Z,46.80
2018-07-10T16:55:29.311Z,46.70
2018-07-10T16:57:57.666Z,46.80
2018-07-10T17:00:27.653Z,46.70
2018-07-10T17:02:57.032Z,46.60
2018-07-10T17:05:26.362Z,46.70
2018-07-10T17:07:54.769Z,46.90
2018-07-10T17:10:23.216Z,46.90
2018-07-10T17:12:51.578Z,47.10
2018-07-10T17:15:19.947Z,47.10
2018-07-10T17:17:48.402Z,47.90
2018-07-10T17:20:17.852Z,47.30
2018-07-10T17:22:46.266Z,47.10
2018-07-10T17:25:15.336Z,47.40
2018-07-10T17:27:47.070Z,47.70
2018-07-10T17:30:15.608Z,48.60
2018-07-10T17:32:44.173Z,48.20
2018-07-10T17:35:12.719Z,48.60
2018-07-10T17:37:44.991Z,48.90
2018-07-10T17:40:13.777Z,49.20
2018-07-10T17:42:42.435Z,49.50
2018-07-10T17:45:13.102Z,49.90
2018-07-10T17:47:41.561Z,50.10
2018-07-10T17:50:09.960Z,50.20
2018-07-10T17:52:38.294Z,50.30
2018-07-10T17:55:06.658Z,50.40
2018-07-10T17:57:35.786Z,50.80
2018-07-10T18:00:04.922Z,51.10
2018-07-10T18:02:33.569Z,51.40
2018-07-10T18:05:01.975Z,51.60
2018-07-10T18:07:30.349Z,53.00
2018-07-10T18:09:58.857Z,52.10
2018-07-10T18:12:28.569Z,51.70
2018-07-10T18:14:57.076Z,51.80
2018-07-10T18:17:25.737Z,51.60
2018-07-10T18:19:54.417Z,51.70
2018-07-10T18:22:22.917Z,51.70
2018-07-10T18:24:51.372Z,51.70
2018-07-10T18:27:19.894Z,51.10
2018-07-10T18:29:48.356Z,51.00
2018-07-10T18:32:16.749Z,50.90
2018-07-10T18:34:45.150Z,51.60
2018-07-10T18:37:13.569Z,51.40
2018-07-10T18:39:42.206Z,51.40
2018-07-10T18:42:10.707Z,51.40
2018-07-10T18:44:39.081Z,51.60
2018-07-10T18:47:07.596Z,51.30
2018-07-10T18:49:36.034Z,51.10
2018-07-10T18:52:04.649Z,51.20
2018-07-10T18:54:38.534Z,51.20
2018-07-10T18:57:15.010Z,52.20
2018-07-10T18:59:47.429Z,51.10
2018-07-10T19:02:19.853Z,52.60
2018-07-10T19:04:58.182Z,52.20
2018-07-10T19:07:26.663Z,52.10
2018-07-10T19:09:55.251Z,52.20
2018-07-10T19:12:23.994Z,52.70
2018-07-10T19:14:52.396Z,52.10
2018-07-10T19:17:29.202Z,52.00
2018-07-10T19:20:02.318Z,52.40
2018-07-10T19:22:40.123Z,52.90
2018-07-10T19:25:08.494Z,53.10
2018-07-10T19:27:36.940Z,53.30
2018-07-10T19:30:07.048Z,53.40
2018-07-10T19:32:36.078Z,52.80
2018-07-10T19:35:04.479Z,52.80
2018-07-10T19:37:34.189Z,53.50
2018-07-10T19:40:02.548Z,53.30
2018-07-10T19:42:32.714Z,53.30
2018-07-10T19:45:02.217Z,53.60
2018-07-10T19:47:31.334Z,53.60
2018-07-10T19:50:03.399Z,53.20
2018-07-10T19:52:31.983Z,53.20
2018-07-10T19:55:00.351Z,53.40
2018-07-10T19:57:39.660Z,53.40
2018-07-10T20:00:08.046Z,54.60
2018-07-10T20:02:36.414Z,54.10
2018-07-10T20:05:08.927Z,54.00
2018-07-10T20:07:46.791Z,54.00
2018-07-10T20:10:35.570Z,54.10
2018-07-10T20:13:10.426Z,54.40
2018-07-10T20:15:51.469Z,54.80
2018-07-10T20:19:41.291Z,55.10
2018-07-10T20:22:17.915Z,55.30
2018-07-10T20:24:54.337Z,55.40
2018-07-10T20:27:31.303Z,56.30
2018-07-10T20:30:12.280Z,56.00
2018-07-10T20:32:53.651Z,56.30
2018-07-10T20:35:27.914Z,56.50
2018-07-10T20:37:57.174Z,56.50
2018-07-10T20:40:34.649Z,56.50
2018-07-10T20:43:09.822Z,56.60
2018-07-10T20:45:43.137Z,56.60
2018-07-10T20:48:17.769Z,56.80
2018-07-10T20:50:55.555Z,56.90
2018-07-10T20:53:33.637Z,57.80
2018-07-10T20:56:14.379Z,57.40
2018-07-10T20:58:49.587Z,57.70
2018-07-10T21:01:17.913Z,57.80
2018-07-10T21:03:52.767Z,58.30
2018-07-10T21:06:37.333Z,58.60
2018-07-10T21:09:13.590Z,58.50
2018-07-10T21:11:58.275Z,58.80
2018-07-10T21:14:44.619Z,59.00
2018-07-10T21:17:16.213Z,59.00
2018-07-10T21:19:56.116Z,59.30
2018-07-10T21:22:37.343Z,59.20
2018-07-10T21:25:09.150Z,59.30
2018-07-10T21:27:46.635Z,59.60
2018-07-10T21:30:19.324Z,59.50
2018-07-10T21:33:01.303Z,59.40
2018-07-10T21:35:35.452Z,59.60
2018-07-10T21:38:14.847Z,59.80
2018-07-10T21:41:55.895Z,60.10
2018-07-10T21:45:30.230Z,60.80
2018-07-10T21:48:14.018Z,61.60
2018-07-10T21:50:47.139Z,62.60
2018-07-10T21:53:16.073Z,63.40
2018-07-10T21:55:44.472Z,63.30
2018-07-10T21:58:12.781Z,63.30
2018-07-10T22:00:51.273Z,63.70
2018-07-10T22:03:19.632Z,64.00
2018-07-10T22:05:48.054Z,64.70
2018-07-10T22:08:16.423Z,65.60
2018-07-10T22:10:44.844Z,66.10
2018-07-10T22:13:13.207Z,67.40
2018-07-10T22:15:41.583Z,67.60
2018-07-10T22:18:09.938Z,68.10
2018-07-10T22:20:38.384Z,68.60
2018-07-10T22:23:06.721Z,68.80
2018-07-10T22:25:35.205Z,69.50
2018-07-10T22:28:03.622Z,70.30
2018-07-10T22:33:06.073Z,70.80
2018-07-10T22:35:34.404Z,71.20
2018-07-10T22:38:02.772Z,71.80
2018-07-10T22:40:31.106Z,71.80
2018-07-10T22:42:59.483Z,72.40
2018-07-10T22:45:27.990Z,72.90
2018-07-10T22:47:56.308Z,73.60
2018-07-10T22:50:25.388Z,73.80
2018-07-10T22:52:57.895Z,74.10
2018-07-10T22:55:27.890Z,74.30
2018-07-10T22:58:06.819Z,74.90
2018-07-10T23:00:36.536Z,74.80
2018-07-10T23:03:17.744Z,74.80
2018-07-10T23:05:47.598Z,75.00
2018-07-10T23:08:17.279Z,74.90
2018-07-10T23:10:46.703Z,75.60
2018-07-10T23:13:15.696Z,75.70
2018-07-10T23:15:44.112Z,76.00
2018-07-10T23:18:12.662Z,76.00
2018-07-10T23:20:41.296Z,76.00
2018-07-10T23:23:10.309Z,76.00
2018-07-10T23:25:39.385Z,76.50
2018-07-10T23:28:07.846Z,76.80
2018-07-10T23:30:41.706Z,76.80
2018-07-10T23:33:15.042Z,76.80
2018-07-10T23:35:45.793Z,76.80
2018-07-10T23:38:25.091Z,77.40
2018-07-10T23:40:54.199Z,77.90
2018-07-10T23:43:22.695Z,78.40
2018-07-10T23:45:51.147Z,78.40
2018-07-10T23:48:19.623Z,78.40
2018-07-10T23:50:49.311Z,78.50
2018-07-10T23:53:29.942Z,78.70
2018-07-10T23:55:58.424Z,78.90
2018-07-10T23:58:26.783Z,79.10
